sensor_id;sensor_type;location;lat;lon;timestamp;P1;durP1;ratioP1;P2;durP2;ratioP2
61903;SDS011;47857;52.270;6.804;2023-07-29T00:00:19;11.00;;;9.50;;
61903;SDS011;47857;52.270;6.804;2023-07-29T00:02:45;11.60;;;9.23;;
61903;SDS011;47857;52.270;6.804;2023-07-29T00:05:11;15.05;;;9.30;;
61903;SDS011;47857;52.270;6.804;2023-07-29T00:07:36;12.30;;;9.27;;
61903;SDS011;47857;52.270;6.804;2023-07-29T00:10:02;11.57;;;9.57;;
61903;SDS011;47857;52.270;6.804;2023-07-29T00:12:28;11.27;;;8.52;;
61903;SDS011;47857;52.270;6.804;2023-07-29T00:14:54;11.82;;;8.63;;
61903;SDS011;47857;52.270;6.804;2023-07-29T00:17:20;10.70;;;9.25;;
61903;SDS011;47857;52.270;6.804;2023-07-29T00:19:46;11.07;;;9.05;;
61903;SDS011;47857;52.270;6.804;2023-07-29T00:22:11;10.90;;;9.15;;
61903;SDS011;47857;52.270;6.804;2023-07-29T00:24:37;10.70;;;8.82;;
61903;SDS011;47857;52.270;6.804;2023-07-29T00:27:04;11.13;;;8.98;;
61903;SDS011;47857;52.270;6.804;2023-07-29T00:29:30;11.70;;;8.80;;
61903;SDS011;47857;52.270;6.804;2023-07-29T00:31:55;12.23;;;9.07;;
61903;SDS011;47857;52.270;6.804;2023-07-29T00:34:21;9.93;;;7.80;;
61903;SDS011;47857;52.270;6.804;2023-07-29T00:36:47;10.90;;;8.38;;
61903;SDS011;47857;52.270;6.804;2023-07-29T00:39:12;10.50;;;7.97;;
61903;SDS011;47857;52.270;6.804;2023-07-29T00:41:38;8.93;;;7.88;;
61903;SDS011;47857;52.270;6.804;2023-07-29T00:44:04;9.45;;;6.78;;
61903;SDS011;47857;52.270;6.804;2023-07-29T00:46:30;10.48;;;7.32;;
61903;SDS011;47857;52.270;6.804;2023-07-29T00:48:58;9.10;;;6.88;;
61903;SDS011;47857;52.270;6.804;2023-07-29T00:51:23;11.40;;;7.03;;
61903;SDS011;47857;52.270;6.804;2023-07-29T00:53:49;12.52;;;6.80;;
61903;SDS011;47857;52.270;6.804;2023-07-29T00:56:15;9.15;;;6.43;;
61903;SDS011;47857;52.270;6.804;2023-07-29T00:58:42;9.93;;;7.07;;
61903;SDS011;47857;52.270;6.804;2023-07-29T01:01:08;8.00;;;6.80;;
61903;SDS011;47857;52.270;6.804;2023-07-29T01:03:34;9.45;;;7.05;;
61903;SDS011;47857;52.270;6.804;2023-07-29T01:09:14;8.88;;;7.05;;
61903;SDS011;47857;52.270;6.804;2023-07-29T01:11:54;10.48;;;7.65;;
61903;SDS011;47857;52.270;6.804;2023-07-29T01:17:07;10.30;;;7.38;;
61903;SDS011;47857;52.270;6.804;2023-07-29T01:19:47;8.88;;;7.45;;
61903;SDS011;47857;52.270;6.804;2023-07-29T01:22:19;9.23;;;7.63;;
61903;SDS011;47857;52.270;6.804;2023-07-29T01:24:46;9.82;;;8.43;;
61903;SDS011;47857;52.270;6.804;2023-07-29T01:27:12;11.02;;;8.05;;
61903;SDS011;47857;52.270;6.804;2023-07-29T01:29:39;11.20;;;8.80;;
61903;SDS011;47857;52.270;6.804;2023-07-29T01:32:14;10.02;;;8.70;;
61903;SDS011;47857;52.270;6.804;2023-07-29T01:34:51;11.15;;;8.30;;
61903;SDS011;47857;52.270;6.804;2023-07-29T01:37:34;12.27;;;9.23;;
61903;SDS011;47857;52.270;6.804;2023-07-29T01:40:00;11.23;;;8.90;;
61903;SDS011;47857;52.270;6.804;2023-07-29T01:42:26;11.32;;;9.43;;
61903;SDS011;47857;52.270;6.804;2023-07-29T01:44:52;12.00;;;9.70;;
61903;SDS011;47857;52.270;6.804;2023-07-29T01:47:18;13.13;;;10.23;;
61903;SDS011;47857;52.270;6.804;2023-07-29T01:49:43;13.43;;;10.05;;
61903;SDS011;47857;52.270;6.804;2023-07-29T01:52:09;13.57;;;10.40;;
61903;SDS011;47857;52.270;6.804;2023-07-29T01:54:34;12.63;;;9.93;;
61903;SDS011;47857;52.270;6.804;2023-07-29T01:57:00;14.32;;;10.52;;
61903;SDS011;47857;52.270;6.804;2023-07-29T01:59:26;11.95;;;10.30;;
61903;SDS011;47857;52.270;6.804;2023-07-29T02:01:51;14.32;;;10.43;;
61903;SDS011;47857;52.270;6.804;2023-07-29T02:04:17;13.32;;;10.02;;
61903;SDS011;47857;52.270;6.804;2023-07-29T02:06:43;11.85;;;10.10;;
61903;SDS011;47857;52.270;6.804;2023-07-29T02:09:08;12.20;;;10.20;;
61903;SDS011;47857;52.270;6.804;2023-07-29T02:11:34;13.27;;;10.18;;
61903;SDS011;47857;52.270;6.804;2023-07-29T02:14:00;11.90;;;10.00;;
61903;SDS011;47857;52.270;6.804;2023-07-29T02:16:26;12.52;;;10.10;;
61903;SDS011;47857;52.270;6.804;2023-07-29T02:18:52;14.68;;;10.35;;
61903;SDS011;47857;52.270;6.804;2023-07-29T02:21:17;11.57;;;9.82;;
61903;SDS011;47857;52.270;6.804;2023-07-29T02:23:43;12.48;;;10.20;;
61903;SDS011;47857;52.270;6.804;2023-07-29T02:26:08;12.13;;;9.93;;
61903;SDS011;47857;52.270;6.804;2023-07-29T02:28:34;11.73;;;9.68;;
61903;SDS011;47857;52.270;6.804;2023-07-29T02:31:12;12.73;;;10.10;;
61903;SDS011;47857;52.270;6.804;2023-07-29T02:33:40;14.23;;;9.98;;
61903;SDS011;47857;52.270;6.804;2023-07-29T02:36:05;13.98;;;9.43;;
61903;SDS011;47857;52.270;6.804;2023-07-29T02:38:31;15.95;;;8.73;;
61903;SDS011;47857;52.270;6.804;2023-07-29T02:40:57;10.98;;;8.63;;
61903;SDS011;47857;52.270;6.804;2023-07-29T02:43:22;11.88;;;8.70;;
61903;SDS011;47857;52.270;6.804;2023-07-29T02:45:48;12.68;;;8.05;;
61903;SDS011;47857;52.270;6.804;2023-07-29T02:48:13;11.18;;;8.20;;
61903;SDS011;47857;52.270;6.804;2023-07-29T02:50:39;10.73;;;7.72;;
61903;SDS011;47857;52.270;6.804;2023-07-29T02:53:04;11.35;;;8.13;;
61903;SDS011;47857;52.270;6.804;2023-07-29T02:55:30;8.32;;;7.22;;
61903;SDS011;47857;52.270;6.804;2023-07-29T02:57:56;11.43;;;8.57;;
61903;SDS011;47857;52.270;6.804;2023-07-29T03:00:21;14.65;;;7.93;;
61903;SDS011;47857;52.270;6.804;2023-07-29T03:02:47;11.88;;;8.55;;
61903;SDS011;47857;52.270;6.804;2023-07-29T03:05:12;11.07;;;8.68;;
61903;SDS011;47857;52.270;6.804;2023-07-29T03:07:38;11.93;;;9.15;;
61903;SDS011;47857;52.270;6.804;2023-07-29T03:10:04;12.80;;;9.15;;
61903;SDS011;47857;52.270;6.804;2023-07-29T03:12:30;12.85;;;9.40;;
61903;SDS011;47857;52.270;6.804;2023-07-29T03:14:56;12.20;;;9.20;;
61903;SDS011;47857;52.270;6.804;2023-07-29T03:17:22;12.63;;;9.02;;
61903;SDS011;47857;52.270;6.804;2023-07-29T03:19:47;9.85;;;8.75;;
61903;SDS011;47857;52.270;6.804;2023-07-29T03:22:13;11.80;;;9.02;;
61903;SDS011;47857;52.270;6.804;2023-07-29T03:24:43;10.65;;;8.57;;
61903;SDS011;47857;52.270;6.804;2023-07-29T03:27:09;11.68;;;8.60;;
61903;SDS011;47857;52.270;6.804;2023-07-29T03:29:35;12.63;;;8.90;;
61903;SDS011;47857;52.270;6.804;2023-07-29T03:32:01;9.52;;;8.15;;
61903;SDS011;47857;52.270;6.804;2023-07-29T03:34:26;10.55;;;8.18;;
61903;SDS011;47857;52.270;6.804;2023-07-29T03:36:52;10.32;;;8.65;;
61903;SDS011;47857;52.270;6.804;2023-07-29T03:39:17;11.73;;;8.70;;
61903;SDS011;47857;52.270;6.804;2023-07-29T03:41:43;14.80;;;8.32;;
61903;SDS011;47857;52.270;6.804;2023-07-29T03:44:08;11.32;;;7.75;;
61903;SDS011;47857;52.270;6.804;2023-07-29T03:46:34;9.60;;;7.72;;
61903;SDS011;47857;52.270;6.804;2023-07-29T03:49:00;10.23;;;7.60;;
61903;SDS011;47857;52.270;6.804;2023-07-29T03:51:26;9.65;;;7.65;;
61903;SDS011;47857;52.270;6.804;2023-07-29T03:53:51;9.18;;;7.55;;
61903;SDS011;47857;52.270;6.804;2023-07-29T03:56:17;8.68;;;7.25;;
61903;SDS011;47857;52.270;6.804;2023-07-29T03:58:43;9.55;;;7.65;;
61903;SDS011;47857;52.270;6.804;2023-07-29T04:01:09;10.43;;;7.85;;
61903;SDS011;47857;52.270;6.804;2023-07-29T04:03:35;11.50;;;7.60;;
61903;SDS011;47857;52.270;6.804;2023-07-29T04:06:00;10.68;;;7.43;;
61903;SDS011;47857;52.270;6.804;2023-07-29T04:08:26;10.02;;;7.60;;
61903;SDS011;47857;52.270;6.804;2023-07-29T04:10:52;10.98;;;7.32;;
61903;SDS011;47857;52.270;6.804;2023-07-29T04:13:17;11.18;;;7.45;;
61903;SDS011;47857;52.270;6.804;2023-07-29T04:15:44;9.70;;;7.57;;
61903;SDS011;47857;52.270;6.804;2023-07-29T04:18:10;11.63;;;7.40;;
61903;SDS011;47857;52.270;6.804;2023-07-29T04:20:36;10.18;;;6.95;;
61903;SDS011;47857;52.270;6.804;2023-07-29T04:23:02;8.52;;;6.90;;
61903;SDS011;47857;52.270;6.804;2023-07-29T04:25:27;8.57;;;6.53;;
61903;SDS011;47857;52.270;6.804;2023-07-29T04:27:53;10.25;;;6.90;;
61903;SDS011;47857;52.270;6.804;2023-07-29T04:30:19;9.00;;;6.72;;
61903;SDS011;47857;52.270;6.804;2023-07-29T04:32:45;10.63;;;6.80;;
61903;SDS011;47857;52.270;6.804;2023-07-29T04:35:13;7.30;;;6.50;;
61903;SDS011;47857;52.270;6.804;2023-07-29T04:37:39;8.40;;;6.88;;
61903;SDS011;47857;52.270;6.804;2023-07-29T04:40:05;9.02;;;6.97;;
61903;SDS011;47857;52.270;6.804;2023-07-29T04:42:31;10.98;;;6.68;;
61903;SDS011;47857;52.270;6.804;2023-07-29T04:44:57;7.85;;;6.18;;
61903;SDS011;47857;52.270;6.804;2023-07-29T04:47:23;8.80;;;7.05;;
61903;SDS011;47857;52.270;6.804;2023-07-29T04:49:49;7.60;;;6.20;;
61903;SDS011;47857;52.270;6.804;2023-07-29T04:52:15;8.63;;;6.90;;
61903;SDS011;47857;52.270;6.804;2023-07-29T04:54:41;10.65;;;7.03;;
61903;SDS011;47857;52.270;6.804;2023-07-29T04:57:07;10.02;;;6.72;;
61903;SDS011;47857;52.270;6.804;2023-07-29T04:59:32;11.75;;;6.88;;
61903;SDS011;47857;52.270;6.804;2023-07-29T05:01:58;9.23;;;6.47;;
61903;SDS011;47857;52.270;6.804;2023-07-29T05:04:23;8.98;;;7.30;;
61903;SDS011;47857;52.270;6.804;2023-07-29T05:06:49;7.72;;;6.82;;
61903;SDS011;47857;52.270;6.804;2023-07-29T05:09:16;8.80;;;7.38;;
61903;SDS011;47857;52.270;6.804;2023-07-29T05:11:43;8.77;;;7.10;;
61903;SDS011;47857;52.270;6.804;2023-07-29T05:14:13;9.10;;;7.50;;
61903;SDS011;47857;52.270;6.804;2023-07-29T05:16:38;12.75;;;9.45;;
61903;SDS011;47857;52.270;6.804;2023-07-29T05:19:04;40.53;;;27.13;;
61903;SDS011;47857;52.270;6.804;2023-07-29T05:21:30;33.75;;;23.13;;
61903;SDS011;47857;52.270;6.804;2023-07-29T05:23:55;28.05;;;16.27;;
61903;SDS011;47857;52.270;6.804;2023-07-29T05:26:21;14.40;;;11.32;;
61903;SDS011;47857;52.270;6.804;2023-07-29T05:28:47;13.32;;;10.15;;
61903;SDS011;47857;52.270;6.804;2023-07-29T05:31:13;12.30;;;8.48;;
61903;SDS011;47857;52.270;6.804;2023-07-29T05:33:39;9.95;;;7.93;;
61903;SDS011;47857;52.270;6.804;2023-07-29T05:36:05;8.82;;;7.78;;
61903;SDS011;47857;52.270;6.804;2023-07-29T05:38:31;11.63;;;8.10;;
61903;SDS011;47857;52.270;6.804;2023-07-29T05:40:57;9.43;;;7.72;;
61903;SDS011;47857;52.270;6.804;2023-07-29T05:43:23;9.98;;;7.10;;
61903;SDS011;47857;52.270;6.804;2023-07-29T05:45:49;10.70;;;7.57;;
61903;SDS011;47857;52.270;6.804;2023-07-29T05:48:16;8.63;;;6.85;;
61903;SDS011;47857;52.270;6.804;2023-07-29T05:50:43;8.48;;;7.40;;
61903;SDS011;47857;52.270;6.804;2023-07-29T05:53:09;8.32;;;6.65;;
61903;SDS011;47857;52.270;6.804;2023-07-29T05:55:35;12.07;;;6.18;;
61903;SDS011;47857;52.270;6.804;2023-07-29T05:58:01;11.07;;;6.80;;
61903;SDS011;47857;52.270;6.804;2023-07-29T06:00:26;10.05;;;7.32;;
61903;SDS011;47857;52.270;6.804;2023-07-29T06:02:52;12.80;;;7.18;;
61903;SDS011;47857;52.270;6.804;2023-07-29T06:05:20;7.32;;;6.28;;
61903;SDS011;47857;52.270;6.804;2023-07-29T06:07:46;9.73;;;6.05;;
61903;SDS011;47857;52.270;6.804;2023-07-29T06:10:13;7.88;;;6.65;;
61903;SDS011;47857;52.270;6.804;2023-07-29T06:12:43;10.52;;;7.15;;
61903;SDS011;47857;52.270;6.804;2023-07-29T06:15:09;9.27;;;6.35;;
61903;SDS011;47857;52.270;6.804;2023-07-29T06:17:35;11.55;;;6.60;;
61903;SDS011;47857;52.270;6.804;2023-07-29T06:20:01;7.57;;;4.65;;
61903;SDS011;47857;52.270;6.804;2023-07-29T06:22:26;8.73;;;5.68;;
61903;SDS011;47857;52.270;6.804;2023-07-29T06:24:52;9.95;;;6.20;;
61903;SDS011;47857;52.270;6.804;2023-07-29T06:27:17;7.45;;;5.05;;
61903;SDS011;47857;52.270;6.804;2023-07-29T06:29:43;11.88;;;6.15;;
61903;SDS011;47857;52.270;6.804;2023-07-29T06:32:08;6.82;;;5.03;;
61903;SDS011;47857;52.270;6.804;2023-07-29T06:34:34;7.97;;;4.15;;
61903;SDS011;47857;52.270;6.804;2023-07-29T06:36:59;7.80;;;5.18;;
61903;SDS011;47857;52.270;6.804;2023-07-29T06:39:25;6.68;;;5.07;;
61903;SDS011;47857;52.270;6.804;2023-07-29T06:41:50;5.55;;;3.08;;
61903;SDS011;47857;52.270;6.804;2023-07-29T06:44:17;4.47;;;3.00;;
61903;SDS011;47857;52.270;6.804;2023-07-29T06:46:43;5.60;;;4.15;;
61903;SDS011;47857;52.270;6.804;2023-07-29T06:49:08;4.25;;;3.40;;
61903;SDS011;47857;52.270;6.804;2023-07-29T06:51:34;6.85;;;3.42;;
61903;SDS011;47857;52.270;6.804;2023-07-29T06:54:01;8.65;;;3.65;;
61903;SDS011;47857;52.270;6.804;2023-07-29T06:56:27;15.23;;;4.90;;
61903;SDS011;47857;52.270;6.804;2023-07-29T06:58:52;13.48;;;5.25;;
61903;SDS011;47857;52.270;6.804;2023-07-29T07:01:18;30.83;;;7.88;;
61903;SDS011;47857;52.270;6.804;2023-07-29T07:03:43;22.42;;;7.03;;
61903;SDS011;47857;52.270;6.804;2023-07-29T07:06:09;9.15;;;4.00;;
61903;SDS011;47857;52.270;6.804;2023-07-29T07:08:34;18.65;;;5.53;;
61903;SDS011;47857;52.270;6.804;2023-07-29T07:11:00;15.45;;;4.55;;
61903;SDS011;47857;52.270;6.804;2023-07-29T07:13:25;20.15;;;4.85;;
61903;SDS011;47857;52.270;6.804;2023-07-29T07:15:53;10.52;;;3.92;;
61903;SDS011;47857;52.270;6.804;2023-07-29T07:18:20;9.95;;;3.83;;
61903;SDS011;47857;52.270;6.804;2023-07-29T07:20:50;16.75;;;5.13;;
61903;SDS011;47857;52.270;6.804;2023-07-29T07:23:16;10.63;;;4.22;;
61903;SDS011;47857;52.270;6.804;2023-07-29T07:25:42;7.68;;;3.90;;
61903;SDS011;47857;52.270;6.804;2023-07-29T07:28:08;10.55;;;4.53;;
61903;SDS011;47857;52.270;6.804;2023-07-29T07:30:34;12.25;;;4.80;;
61903;SDS011;47857;52.270;6.804;2023-07-29T07:33:00;20.02;;;7.05;;
61903;SDS011;47857;52.270;6.804;2023-07-29T07:35:25;15.50;;;5.82;;
61903;SDS011;47857;52.270;6.804;2023-07-29T07:37:51;8.88;;;6.10;;
61903;SDS011;47857;52.270;6.804;2023-07-29T07:40:16;18.30;;;5.60;;
61903;SDS011;47857;52.270;6.804;2023-07-29T07:42:42;13.80;;;6.10;;
61903;SDS011;47857;52.270;6.804;2023-07-29T07:45:08;9.70;;;5.30;;
61903;SDS011;47857;52.270;6.804;2023-07-29T07:47:33;8.32;;;5.50;;
61903;SDS011;47857;52.270;6.804;2023-07-29T07:49:59;7.63;;;4.72;;
61903;SDS011;47857;52.270;6.804;2023-07-29T07:52:24;7.35;;;4.32;;
61903;SDS011;47857;52.270;6.804;2023-07-29T07:54:53;9.07;;;3.72;;
61903;SDS011;47857;52.270;6.804;2023-07-29T07:57:22;6.75;;;3.67;;
61903;SDS011;47857;52.270;6.804;2023-07-29T07:59:48;5.93;;;3.90;;
61903;SDS011;47857;52.270;6.804;2023-07-29T08:02:14;5.97;;;3.67;;
61903;SDS011;47857;52.270;6.804;2023-07-29T08:04:39;6.30;;;3.78;;
61903;SDS011;47857;52.270;6.804;2023-07-29T08:07:05;9.32;;;4.07;;
61903;SDS011;47857;52.270;6.804;2023-07-29T08:09:31;6.05;;;3.70;;
61903;SDS011;47857;52.270;6.804;2023-07-29T08:11:56;5.75;;;3.15;;
61903;SDS011;47857;52.270;6.804;2023-07-29T08:14:22;6.10;;;3.10;;
61903;SDS011;47857;52.270;6.804;2023-07-29T08:16:47;4.75;;;3.30;;
61903;SDS011;47857;52.270;6.804;2023-07-29T08:19:13;6.95;;;3.08;;
61903;SDS011;47857;52.270;6.804;2023-07-29T08:21:38;5.50;;;3.30;;
61903;SDS011;47857;52.270;6.804;2023-07-29T08:24:04;5.32;;;3.58;;
61903;SDS011;47857;52.270;6.804;2023-07-29T08:26:29;6.10;;;2.70;;
61903;SDS011;47857;52.270;6.804;2023-07-29T08:28:55;4.00;;;3.05;;
61903;SDS011;47857;52.270;6.804;2023-07-29T08:31:20;6.07;;;2.67;;
61903;SDS011;47857;52.270;6.804;2023-07-29T08:33:46;4.93;;;2.47;;
61903;SDS011;47857;52.270;6.804;2023-07-29T08:36:12;5.22;;;2.72;;
61903;SDS011;47857;52.270;6.804;2023-07-29T08:38:37;5.80;;;3.17;;
61903;SDS011;47857;52.270;6.804;2023-07-29T08:41:09;5.22;;;2.30;;
61903;SDS011;47857;52.270;6.804;2023-07-29T08:43:39;6.53;;;3.45;;
61903;SDS011;47857;52.270;6.804;2023-07-29T08:46:07;4.93;;;3.22;;
61903;SDS011;47857;52.270;6.804;2023-07-29T08:48:36;4.70;;;3.05;;
61903;SDS011;47857;52.270;6.804;2023-07-29T08:51:05;5.95;;;2.75;;
61903;SDS011;47857;52.270;6.804;2023-07-29T08:53:33;7.30;;;3.67;;
61903;SDS011;47857;52.270;6.804;2023-07-29T08:55:59;4.68;;;2.60;;
61903;SDS011;47857;52.270;6.804;2023-07-29T08:58:24;6.15;;;3.17;;
61903;SDS011;47857;52.270;6.804;2023-07-29T09:00:50;4.55;;;3.05;;
61903;SDS011;47857;52.270;6.804;2023-07-29T09:03:16;5.72;;;2.58;;
61903;SDS011;47857;52.270;6.804;2023-07-29T09:05:41;5.32;;;2.22;;
61903;SDS011;47857;52.270;6.804;2023-07-29T09:08:07;5.68;;;3.00;;
61903;SDS011;47857;52.270;6.804;2023-07-29T09:10:36;5.13;;;2.70;;
61903;SDS011;47857;52.270;6.804;2023-07-29T09:13:05;5.10;;;2.50;;
61903;SDS011;47857;52.270;6.804;2023-07-29T09:15:33;4.22;;;2.45;;
61903;SDS011;47857;52.270;6.804;2023-07-29T09:18:08;4.15;;;2.67;;
61903;SDS011;47857;52.270;6.804;2023-07-29T09:20:39;4.38;;;2.60;;
61903;SDS011;47857;52.270;6.804;2023-07-29T09:23:07;4.07;;;2.20;;
61903;SDS011;47857;52.270;6.804;2023-07-29T09:25:34;3.67;;;1.90;;
61903;SDS011;47857;52.270;6.804;2023-07-29T09:28:00;3.70;;;2.10;;
61903;SDS011;47857;52.270;6.804;2023-07-29T09:30:26;3.97;;;2.38;;
61903;SDS011;47857;52.270;6.804;2023-07-29T09:33:00;4.57;;;2.20;;
61903;SDS011;47857;52.270;6.804;2023-07-29T09:35:27;3.25;;;2.13;;
61903;SDS011;47857;52.270;6.804;2023-07-29T09:37:56;4.70;;;2.08;;
61903;SDS011;47857;52.270;6.804;2023-07-29T09:40:22;3.17;;;2.65;;
61903;SDS011;47857;52.270;6.804;2023-07-29T09:42:48;3.28;;;2.35;;
61903;SDS011;47857;52.270;6.804;2023-07-29T09:45:20;5.45;;;2.40;;
61903;SDS011;47857;52.270;6.804;2023-07-29T09:47:50;2.77;;;1.80;;
61903;SDS011;47857;52.270;6.804;2023-07-29T09:50:16;2.17;;;1.67;;
61903;SDS011;47857;52.270;6.804;2023-07-29T09:52:42;3.67;;;2.00;;
61903;SDS011;47857;52.270;6.804;2023-07-29T09:55:10;3.47;;;2.03;;
61903;SDS011;47857;52.270;6.804;2023-07-29T09:57:41;3.15;;;2.25;;
61903;SDS011;47857;52.270;6.804;2023-07-29T10:00:12;2.70;;;1.80;;
61903;SDS011;47857;52.270;6.804;2023-07-29T10:02:39;3.22;;;2.15;;
61903;SDS011;47857;52.270;6.804;2023-07-29T10:05:06;2.58;;;2.28;;
61903;SDS011;47857;52.270;6.804;2023-07-29T10:07:33;3.47;;;2.00;;
61903;SDS011;47857;52.270;6.804;2023-07-29T10:10:02;6.45;;;2.90;;
61903;SDS011;47857;52.270;6.804;2023-07-29T10:12:30;3.15;;;2.00;;
61903;SDS011;47857;52.270;6.804;2023-07-29T10:14:58;3.58;;;2.13;;
61903;SDS011;47857;52.270;6.804;2023-07-29T10:17:25;3.92;;;2.78;;
61903;SDS011;47857;52.270;6.804;2023-07-29T10:19:51;2.22;;;2.00;;
61903;SDS011;47857;52.270;6.804;2023-07-29T10:22:17;3.78;;;1.90;;
61903;SDS011;47857;52.270;6.804;2023-07-29T10:24:45;2.72;;;1.98;;
61903;SDS011;47857;52.270;6.804;2023-07-29T10:27:12;2.75;;;1.90;;
61903;SDS011;47857;52.270;6.804;2023-07-29T10:29:40;4.60;;;2.38;;
61903;SDS011;47857;52.270;6.804;2023-07-29T10:32:07;3.80;;;2.42;;
61903;SDS011;47857;52.270;6.804;2023-07-29T10:34:34;3.05;;;1.88;;
61903;SDS011;47857;52.270;6.804;2023-07-29T10:37:01;3.72;;;2.50;;
61903;SDS011;47857;52.270;6.804;2023-07-29T10:39:27;3.70;;;2.20;;
61903;SDS011;47857;52.270;6.804;2023-07-29T10:49:40;3.90;;;2.42;;
61903;SDS011;47857;52.270;6.804;2023-07-29T10:52:06;3.25;;;2.10;;
61903;SDS011;47857;52.270;6.804;2023-07-29T10:54:40;5.35;;;2.83;;
61903;SDS011;47857;52.270;6.804;2023-07-29T10:57:30;4.38;;;2.53;;
61903;SDS011;47857;52.270;6.804;2023-07-29T10:59:59;3.25;;;2.20;;
61903;SDS011;47857;52.270;6.804;2023-07-29T11:02:29;3.22;;;2.00;;
61903;SDS011;47857;52.270;6.804;2023-07-29T11:05:04;4.25;;;1.90;;
61903;SDS011;47857;52.270;6.804;2023-07-29T11:07:46;2.58;;;1.88;;
61903;SDS011;47857;52.270;6.804;2023-07-29T11:10:13;2.15;;;1.67;;
61903;SDS011;47857;52.270;6.804;2023-07-29T11:12:40;1.85;;;1.73;;
61903;SDS011;47857;52.270;6.804;2023-07-29T11:17:40;2.53;;;1.98;;
61903;SDS011;47857;52.270;6.804;2023-07-29T11:20:07;2.03;;;1.83;;
61903;SDS011;47857;52.270;6.804;2023-07-29T11:22:33;2.75;;;2.00;;
61903;SDS011;47857;52.270;6.804;2023-07-29T11:24:59;1.73;;;1.63;;
61903;SDS011;47857;52.270;6.804;2023-07-29T11:27:25;3.35;;;1.90;;
61903;SDS011;47857;52.270;6.804;2023-07-29T11:29:50;2.88;;;1.65;;
61903;SDS011;47857;52.270;6.804;2023-07-29T11:32:16;3.47;;;1.83;;
61903;SDS011;47857;52.270;6.804;2023-07-29T11:34:42;2.65;;;1.83;;
61903;SDS011;47857;52.270;6.804;2023-07-29T11:37:10;2.55;;;1.70;;
61903;SDS011;47857;52.270;6.804;2023-07-29T11:39:43;2.15;;;1.83;;
61903;SDS011;47857;52.270;6.804;2023-07-29T11:42:12;2.42;;;1.70;;
61903;SDS011;47857;52.270;6.804;2023-07-29T11:44:41;2.92;;;1.75;;
61903;SDS011;47857;52.270;6.804;2023-07-29T11:47:07;3.50;;;1.90;;
61903;SDS011;47857;52.270;6.804;2023-07-29T11:49:33;4.38;;;2.00;;
61903;SDS011;47857;52.270;6.804;2023-07-29T11:51:59;4.07;;;1.83;;
61903;SDS011;47857;52.270;6.804;2023-07-29T11:54:25;2.88;;;1.83;;
61903;SDS011;47857;52.270;6.804;2023-07-29T11:56:51;3.40;;;1.90;;
61903;SDS011;47857;52.270;6.804;2023-07-29T11:59:16;2.00;;;1.60;;
61903;SDS011;47857;52.270;6.804;2023-07-29T12:01:42;2.75;;;1.60;;
61903;SDS011;47857;52.270;6.804;2023-07-29T12:04:07;2.03;;;1.50;;
61903;SDS011;47857;52.270;6.804;2023-07-29T12:06:33;1.98;;;1.52;;
61903;SDS011;47857;52.270;6.804;2023-07-29T12:08:59;2.42;;;1.70;;
61903;SDS011;47857;52.270;6.804;2023-07-29T12:11:25;2.63;;;1.50;;
61903;SDS011;47857;52.270;6.804;2023-07-29T12:13:53;1.88;;;1.30;;
61903;SDS011;47857;52.270;6.804;2023-07-29T12:16:18;2.72;;;1.30;;
61903;SDS011;47857;52.270;6.804;2023-07-29T12:18:44;2.88;;;1.48;;
61903;SDS011;47857;52.270;6.804;2023-07-29T12:21:10;2.22;;;1.35;;
61903;SDS011;47857;52.270;6.804;2023-07-29T12:23:35;1.45;;;1.10;;
61903;SDS011;47857;52.270;6.804;2023-07-29T12:26:01;2.47;;;1.40;;
61903;SDS011;47857;52.270;6.804;2023-07-29T12:28:26;3.83;;;2.03;;
61903;SDS011;47857;52.270;6.804;2023-07-29T12:30:55;8.45;;;4.65;;
61903;SDS011;47857;52.270;6.804;2023-07-29T12:35:56;5.38;;;3.50;;
61903;SDS011;47857;52.270;6.804;2023-07-29T12:38:22;4.15;;;2.70;;
61903;SDS011;47857;52.270;6.804;2023-07-29T12:40:47;2.85;;;2.00;;
61903;SDS011;47857;52.270;6.804;2023-07-29T12:43:13;9.25;;;5.28;;
61903;SDS011;47857;52.270;6.804;2023-07-29T12:45:38;3.00;;;1.67;;
61903;SDS011;47857;52.270;6.804;2023-07-29T12:48:07;2.72;;;1.50;;
61903;SDS011;47857;52.270;6.804;2023-07-29T12:50:33;1.85;;;1.63;;
61903;SDS011;47857;52.270;6.804;2023-07-29T12:52:59;2.35;;;1.95;;
61903;SDS011;47857;52.270;6.804;2023-07-29T12:55:24;3.20;;;2.33;;
61903;SDS011;47857;52.270;6.804;2023-07-29T12:57:50;2.80;;;1.98;;
61903;SDS011;47857;52.270;6.804;2023-07-29T13:00:15;4.18;;;1.67;;
61903;SDS011;47857;52.270;6.804;2023-07-29T13:02:41;3.05;;;2.08;;
61903;SDS011;47857;52.270;6.804;2023-07-29T13:05:08;5.10;;;2.85;;
61903;SDS011;47857;52.270;6.804;2023-07-29T13:07:36;4.35;;;2.88;;
61903;SDS011;47857;52.270;6.804;2023-07-29T13:10:02;3.70;;;2.60;;
61903;SDS011;47857;52.270;6.804;2023-07-29T13:12:28;5.55;;;2.53;;
61903;SDS011;47857;52.270;6.804;2023-07-29T13:14:53;5.38;;;2.30;;
61903;SDS011;47857;52.270;6.804;2023-07-29T13:17:19;2.35;;;1.75;;
61903;SDS011;47857;52.270;6.804;2023-07-29T13:19:45;5.35;;;2.00;;
61903;SDS011;47857;52.270;6.804;2023-07-29T13:22:11;2.90;;;2.08;;
61903;SDS011;47857;52.270;6.804;2023-07-29T13:24:36;2.30;;;1.90;;
61903;SDS011;47857;52.270;6.804;2023-07-29T13:27:02;3.05;;;2.10;;
61903;SDS011;47857;52.270;6.804;2023-07-29T13:29:28;4.20;;;2.10;;
61903;SDS011;47857;52.270;6.804;2023-07-29T13:31:54;3.63;;;1.80;;
61903;SDS011;47857;52.270;6.804;2023-07-29T13:34:19;2.60;;;1.80;;
61903;SDS011;47857;52.270;6.804;2023-07-29T13:36:45;3.42;;;1.60;;
61903;SDS011;47857;52.270;6.804;2023-07-29T13:39:10;4.55;;;1.70;;
61903;SDS011;47857;52.270;6.804;2023-07-29T13:41:36;5.78;;;2.60;;
61903;SDS011;47857;52.270;6.804;2023-07-29T13:44:01;6.50;;;2.33;;
61903;SDS011;47857;52.270;6.804;2023-07-29T13:46:27;8.52;;;2.30;;
61903;SDS011;47857;52.270;6.804;2023-07-29T13:48:52;7.30;;;2.58;;
61903;SDS011;47857;52.270;6.804;2023-07-29T13:51:18;6.88;;;2.33;;
61903;SDS011;47857;52.270;6.804;2023-07-29T13:53:43;5.65;;;1.70;;
61903;SDS011;47857;52.270;6.804;2023-07-29T13:56:09;3.45;;;1.58;;
61903;SDS011;47857;52.270;6.804;2023-07-29T13:58:34;4.13;;;1.60;;
61903;SDS011;47857;52.270;6.804;2023-07-29T14:01:00;6.78;;;1.95;;
61903;SDS011;47857;52.270;6.804;2023-07-29T14:03:25;4.30;;;1.40;;
61903;SDS011;47857;52.270;6.804;2023-07-29T14:05:51;4.50;;;1.38;;
61903;SDS011;47857;52.270;6.804;2023-07-29T14:08:16;1.98;;;1.10;;
61903;SDS011;47857;52.270;6.804;2023-07-29T14:10:43;4.93;;;1.17;;
61903;SDS011;47857;52.270;6.804;2023-07-29T14:13:09;3.60;;;1.08;;
61903;SDS011;47857;52.270;6.804;2023-07-29T14:15:34;1.83;;;1.08;;
61903;SDS011;47857;52.270;6.804;2023-07-29T14:18:00;1.70;;;1.13;;
61903;SDS011;47857;52.270;6.804;2023-07-29T14:20:27;2.42;;;1.27;;
61903;SDS011;47857;52.270;6.804;2023-07-29T14:22:53;3.90;;;1.30;;
61903;SDS011;47857;52.270;6.804;2023-07-29T14:25:18;2.83;;;1.30;;
61903;SDS011;47857;52.270;6.804;2023-07-29T14:27:44;3.10;;;1.30;;
61903;SDS011;47857;52.270;6.804;2023-07-29T14:30:10;2.30;;;1.25;;
61903;SDS011;47857;52.270;6.804;2023-07-29T14:32:35;3.40;;;1.10;;
61903;SDS011;47857;52.270;6.804;2023-07-29T14:35:02;2.58;;;1.30;;
61903;SDS011;47857;52.270;6.804;2023-07-29T14:37:31;2.15;;;1.33;;
61903;SDS011;47857;52.270;6.804;2023-07-29T14:39:57;2.05;;;1.08;;
61903;SDS011;47857;52.270;6.804;2023-07-29T14:42:23;2.95;;;1.20;;
61903;SDS011;47857;52.270;6.804;2023-07-29T14:44:49;2.80;;;1.45;;
61903;SDS011;47857;52.270;6.804;2023-07-29T14:47:14;2.85;;;1.40;;
61903;SDS011;47857;52.270;6.804;2023-07-29T14:49:40;1.92;;;1.17;;
61903;SDS011;47857;52.270;6.804;2023-07-29T14:52:06;1.83;;;1.30;;
61903;SDS011;47857;52.270;6.804;2023-07-29T14:54:32;2.13;;;1.10;;
61903;SDS011;47857;52.270;6.804;2023-07-29T14:56:57;1.67;;;1.15;;